This is the latest recevied weather packets stored in our database for station/object KB1RMA-13. If no packets are shown the sender has not sent any weather packets the latest 1 day(s).
| Time | Temp. | Humidity | Pressure | Rain* | Wind** | Luminosity | Snow |
|---|---|---|---|---|---|---|---|
| 1777994606 | 23.33° C | 50% | 1008.9 hPa | 0 mm | 1.79 m/s, 220° | 138 W/m² | - |
| 1777994305 | 23.33° C | 50% | 1008.7 hPa | 0 mm | 2.68 m/s, 228° | 362 W/m² | - |
| 1777994003 | 23.33° C | 52% | 1008.7 hPa | 0 mm | 3.13 m/s, 258° | 140 W/m² | - |
| 1777993699 | 22.78° C | 53% | 1008.7 hPa | 0 mm | 3.58 m/s, 274° | 143 W/m² | - |
| 1777993396 | 22.22° C | 53% | 1009.3 hPa | 0 mm | 3.13 m/s, 223° | 176 W/m² | - |
| 1777993091 | 21.67° C | 54% | 1009 hPa | 0 mm | 4.02 m/s, 190° | 831 W/m² | - |
| 1777992790 | 22.22° C | 54% | 1009.2 hPa | 0 mm | 4.92 m/s, 199° | 217 W/m² | - |
| 1777992487 | 22.22° C | 54% | 1009.1 hPa | 0 mm | 3.13 m/s, 271° | 280 W/m² | - |
| 1777992186 | 21.67° C | 55% | 1009.1 hPa | 0 mm | 4.92 m/s, 208° | 811 W/m² | - |
| 1777991882 | 21.11° C | 59% | 1009.1 hPa | 0 mm | 4.92 m/s, 242° | 817 W/m² | - |
| 1777991579 | 21.11° C | 56% | 1009 hPa | 0 mm | 4.02 m/s, 210° | 236 W/m² | - |
| 1777991276 | 20.56° C | 58% | 1008.9 hPa | 0 mm | 3.13 m/s, 207° | 763 W/m² | - |
| 1777990973 | 20° C | 61% | 1009 hPa | 0 mm | 7.15 m/s, 203° | 664 W/m² | - |
| 1777990671 | 19.44° C | 61% | 1009.1 hPa | 0 mm | 2.24 m/s, 227° | 172 W/m² | - |
| 1777990368 | 19.44° C | 63% | 1009 hPa | 0 mm | 5.36 m/s, 209° | 180 W/m² | - |
| 1777990064 | 19.44° C | 65% | 1009.1 hPa | 0 mm | 4.47 m/s, 252° | 226 W/m² | - |
| 1777989761 | 18.33° C | 67% | 1009.2 hPa | 0 mm | 5.36 m/s, 236° | 205 W/m² | - |
| 1777989458 | 17.78° C | 71% | 1009.2 hPa | 0 mm | 4.02 m/s, 241° | 177 W/m² | - |
| 1777989154 | 17.78° C | 73% | 1009.1 hPa | 0 mm | 3.13 m/s, 215° | 152 W/m² | - |
| 1777988850 | 17.78° C | 68% | 1008.9 hPa | 0 mm | 2.24 m/s, 215° | 98 W/m² | - |
| 1777988548 | 18.89° C | 61% | 1009.5 hPa | 0 mm | 2.68 m/s, 241° | 81 W/m² | - |
| 1777988244 | 19.44° C | 59% | 1009.2 hPa | 0 mm | 7.15 m/s, 222° | 132 W/m² | - |
| 1777987941 | 20° C | 59% | 1009.2 hPa | 0 mm | 3.13 m/s, 254° | 134 W/m² | - |
| 1777987636 | 20.56° C | 56% | 1009.1 hPa | 0 mm | 3.58 m/s, 202° | 143 W/m² | - |
| 1777987334 | 20.56° C | 56% | 1009.2 hPa | 0 mm | 3.58 m/s, 221° | 648 W/m² | - |
* Rain latest hour (hover to see other rain measurements)
** Current wind speed in m/s (hover to see current wind gust speed)